sensor_id;sensor_type;location;lat;lon;timestamp;temperature;humidity
21625;DHT22;10974;51.034;3.744;2022-08-01T00:00:10;20.10;99.90
21625;DHT22;10974;51.034;3.744;2022-08-01T00:02:37;19.90;99.90
21625;DHT22;10974;51.034;3.744;2022-08-01T00:05:04;19.90;99.90
21625;DHT22;10974;51.034;3.744;2022-08-01T00:07:33;19.90;99.90
21625;DHT22;10974;51.034;3.744;2022-08-01T00:10:00;19.90;99.90
21625;DHT22;10974;51.034;3.744;2022-08-01T00:12:26;19.90;99.90
21625;DHT22;10974;51.034;3.744;2022-08-01T00:14:51;19.90;99.90
21625;DHT22;10974;51.034;3.744;2022-08-01T00:17:17;19.90;99.90
21625;DHT22;10974;51.034;3.744;2022-08-01T00:19:43;19.90;99.90
21625;DHT22;10974;51.034;3.744;2022-08-01T00:22:08;19.80;99.90
21625;DHT22;10974;51.034;3.744;2022-08-01T00:24:34;19.70;99.90
21625;DHT22;10974;51.034;3.744;2022-08-01T00:26:59;19.70;99.90
21625;DHT22;10974;51.034;3.744;2022-08-01T00:29:25;19.70;99.90
21625;DHT22;10974;51.034;3.744;2022-08-01T00:31:51;19.70;99.90
21625;DHT22;10974;51.034;3.744;2022-08-01T00:34:17;19.70;99.90
21625;DHT22;10974;51.034;3.744;2022-08-01T00:36:43;19.60;99.90
21625;DHT22;10974;51.034;3.744;2022-08-01T00:39:08;19.60;99.90
21625;DHT22;10974;51.034;3.744;2022-08-01T00:41:34;19.60;99.90
21625;DHT22;10974;51.034;3.744;2022-08-01T00:44:05;19.60;99.90
21625;DHT22;10974;51.034;3.744;2022-08-01T00:46:31;19.60;99.90
21625;DHT22;10974;51.034;3.744;2022-08-01T00:48:57;19.60;99.90
21625;DHT22;10974;51.034;3.744;2022-08-01T00:51:23;19.60;99.90
21625;DHT22;10974;51.034;3.744;2022-08-01T00:53:50;19.70;99.90
21625;DHT22;10974;51.034;3.744;2022-08-01T00:56:17;19.80;99.90
21625;DHT22;10974;51.034;3.744;2022-08-01T00:58:43;19.70;99.90
21625;DHT22;10974;51.034;3.744;2022-08-01T01:01:09;19.60;99.90
21625;DHT22;10974;51.034;3.744;2022-08-01T01:03:35;19.50;99.90
21625;DHT22;10974;51.034;3.744;2022-08-01T01:06:25;19.40;99.90
21625;DHT22;10974;51.034;3.744;2022-08-01T01:12:13;19.50;99.90
21625;DHT22;10974;51.034;3.744;2022-08-01T01:17:16;19.50;99.90
21625;DHT22;10974;51.034;3.744;2022-08-01T01:19:48;19.40;99.90
21625;DHT22;10974;51.034;3.744;2022-08-01T01:27:52;19.40;99.90
21625;DHT22;10974;51.034;3.744;2022-08-01T01:30:22;19.20;99.90
21625;DHT22;10974;51.034;3.744;2022-08-01T01:32:50;19.20;99.90
21625;DHT22;10974;51.034;3.744;2022-08-01T01:35:28;19.20;99.90
21625;DHT22;10974;51.034;3.744;2022-08-01T01:38:00;19.40;99.90
21625;DHT22;10974;51.034;3.744;2022-08-01T01:40:27;19.40;99.90
21625;DHT22;10974;51.034;3.744;2022-08-01T01:42:55;19.40;99.90
21625;DHT22;10974;51.034;3.744;2022-08-01T01:45:24;19.50;99.90
21625;DHT22;10974;51.034;3.744;2022-08-01T01:47:51;19.50;99.90
21625;DHT22;10974;51.034;3.744;2022-08-01T01:50:20;19.40;99.90
21625;DHT22;10974;51.034;3.744;2022-08-01T01:52:46;19.40;99.90
21625;DHT22;10974;51.034;3.744;2022-08-01T01:55:13;19.40;99.90
21625;DHT22;10974;51.034;3.744;2022-08-01T01:57:41;19.40;99.90
21625;DHT22;10974;51.034;3.744;2022-08-01T02:00:09;19.30;99.90
21625;DHT22;10974;51.034;3.744;2022-08-01T02:02:36;19.20;99.90
21625;DHT22;10974;51.034;3.744;2022-08-01T02:05:03;19.30;99.90
21625;DHT22;10974;51.034;3.744;2022-08-01T02:07:30;19.00;99.90
21625;DHT22;10974;51.034;3.744;2022-08-01T02:09:56;18.90;99.90
21625;DHT22;10974;51.034;3.744;2022-08-01T02:12:23;19.00;99.90
21625;DHT22;10974;51.034;3.744;2022-08-01T02:14:50;18.90;99.90
21625;DHT22;10974;51.034;3.744;2022-08-01T02:17:18;19.00;99.90
21625;DHT22;10974;51.034;3.744;2022-08-01T02:19:45;19.00;99.90
21625;DHT22;10974;51.034;3.744;2022-08-01T02:22:16;19.00;99.90
21625;DHT22;10974;51.034;3.744;2022-08-01T02:24:52;19.00;99.90
21625;DHT22;10974;51.034;3.744;2022-08-01T02:27:30;19.00;99.90
21625;DHT22;10974;51.034;3.744;2022-08-01T02:30:03;19.00;99.90
21625;DHT22;10974;51.034;3.744;2022-08-01T02:32:39;19.10;99.90
21625;DHT22;10974;51.034;3.744;2022-08-01T02:35:28;19.10;99.90
21625;DHT22;10974;51.034;3.744;2022-08-01T02:37:55;19.10;99.90
21625;DHT22;10974;51.034;3.744;2022-08-01T02:40:22;19.10;99.90
21625;DHT22;10974;51.034;3.744;2022-08-01T02:42:50;19.10;99.90
21625;DHT22;10974;51.034;3.744;2022-08-01T02:45:22;19.20;99.90
21625;DHT22;10974;51.034;3.744;2022-08-01T02:47:50;19.20;99.90
21625;DHT22;10974;51.034;3.744;2022-08-01T02:50:18;19.30;99.90
21625;DHT22;10974;51.034;3.744;2022-08-01T02:52:47;19.20;99.90
21625;DHT22;10974;51.034;3.744;2022-08-01T02:55:14;19.20;99.90
21625;DHT22;10974;51.034;3.744;2022-08-01T02:57:41;19.40;99.90
21625;DHT22;10974;51.034;3.744;2022-08-01T03:00:08;19.30;99.90
21625;DHT22;10974;51.034;3.744;2022-08-01T03:02:35;19.40;99.90
21625;DHT22;10974;51.034;3.744;2022-08-01T03:05:02;19.30;99.90
21625;DHT22;10974;51.034;3.744;2022-08-01T03:07:29;19.40;99.90
21625;DHT22;10974;51.034;3.744;2022-08-01T03:09:56;19.30;99.90
21625;DHT22;10974;51.034;3.744;2022-08-01T03:12:26;19.30;99.90
21625;DHT22;10974;51.034;3.744;2022-08-01T03:14:56;19.40;99.90
21625;DHT22;10974;51.034;3.744;2022-08-01T03:17:25;19.30;99.90
21625;DHT22;10974;51.034;3.744;2022-08-01T03:19:52;19.40;99.90
21625;DHT22;10974;51.034;3.744;2022-08-01T03:22:18;19.30;99.90
21625;DHT22;10974;51.034;3.744;2022-08-01T03:24:49;19.40;99.90
21625;DHT22;10974;51.034;3.744;2022-08-01T03:27:21;19.30;99.90
21625;DHT22;10974;51.034;3.744;2022-08-01T03:29:48;19.40;99.90
21625;DHT22;10974;51.034;3.744;2022-08-01T03:32:15;19.30;99.90
21625;DHT22;10974;51.034;3.744;2022-08-01T03:34:41;19.40;99.90
21625;DHT22;10974;51.034;3.744;2022-08-01T03:37:26;19.40;99.90
21625;DHT22;10974;51.034;3.744;2022-08-01T03:40:25;19.30;99.90
21625;DHT22;10974;51.034;3.744;2022-08-01T03:42:56;19.40;99.90
21625;DHT22;10974;51.034;3.744;2022-08-01T03:45:26;19.40;99.90
21625;DHT22;10974;51.034;3.744;2022-08-01T03:47:59;19.40;99.90
21625;DHT22;10974;51.034;3.744;2022-08-01T03:50:27;19.50;99.90
21625;DHT22;10974;51.034;3.744;2022-08-01T03:52:56;19.40;99.90
21625;DHT22;10974;51.034;3.744;2022-08-01T03:55:23;19.40;99.90
21625;DHT22;10974;51.034;3.744;2022-08-01T03:57:50;19.40;99.90
21625;DHT22;10974;51.034;3.744;2022-08-01T04:00:17;19.40;99.90
21625;DHT22;10974;51.034;3.744;2022-08-01T04:02:48;19.40;99.90
21625;DHT22;10974;51.034;3.744;2022-08-01T04:05:15;19.40;99.90
21625;DHT22;10974;51.034;3.744;2022-08-01T04:07:46;19.40;99.90
21625;DHT22;10974;51.034;3.744;2022-08-01T04:10:12;19.40;99.90
21625;DHT22;10974;51.034;3.744;2022-08-01T04:12:38;19.30;99.90
21625;DHT22;10974;51.034;3.744;2022-08-01T04:15:05;19.40;99.90
21625;DHT22;10974;51.034;3.744;2022-08-01T04:17:31;19.40;99.90
21625;DHT22;10974;51.034;3.744;2022-08-01T04:19:56;19.40;99.90
21625;DHT22;10974;51.034;3.744;2022-08-01T04:22:22;19.50;99.90
21625;DHT22;10974;51.034;3.744;2022-08-01T04:24:50;19.40;99.90
21625;DHT22;10974;51.034;3.744;2022-08-01T04:27:23;19.40;99.90
21625;DHT22;10974;51.034;3.744;2022-08-01T04:29:54;19.40;99.90
21625;DHT22;10974;51.034;3.744;2022-08-01T04:32:21;19.40;99.90
21625;DHT22;10974;51.034;3.744;2022-08-01T04:34:49;19.40;99.90
21625;DHT22;10974;51.034;3.744;2022-08-01T04:37:16;19.40;99.90
21625;DHT22;10974;51.034;3.744;2022-08-01T04:39:42;19.40;99.90
21625;DHT22;10974;51.034;3.744;2022-08-01T04:42:11;19.30;99.90
21625;DHT22;10974;51.034;3.744;2022-08-01T04:44:37;19.30;99.90
21625;DHT22;10974;51.034;3.744;2022-08-01T04:47:04;19.30;99.90
21625;DHT22;10974;51.034;3.744;2022-08-01T04:49:34;19.50;99.90
21625;DHT22;10974;51.034;3.744;2022-08-01T04:52:00;19.40;99.90
21625;DHT22;10974;51.034;3.744;2022-08-01T04:54:27;19.40;99.90
21625;DHT22;10974;51.034;3.744;2022-08-01T04:56:56;19.40;99.90
21625;DHT22;10974;51.034;3.744;2022-08-01T04:59:28;19.40;99.90
21625;DHT22;10974;51.034;3.744;2022-08-01T05:02:08;19.50;99.90
21625;DHT22;10974;51.034;3.744;2022-08-01T05:04:34;19.50;99.90
21625;DHT22;10974;51.034;3.744;2022-08-01T05:07:00;19.60;99.90
21625;DHT22;10974;51.034;3.744;2022-08-01T05:09:26;19.60;99.90
21625;DHT22;10974;51.034;3.744;2022-08-01T05:11:52;19.50;99.90
21625;DHT22;10974;51.034;3.744;2022-08-01T05:14:18;19.60;99.90
21625;DHT22;10974;51.034;3.744;2022-08-01T05:16:45;19.60;99.90
21625;DHT22;10974;51.034;3.744;2022-08-01T05:19:11;19.60;99.90
21625;DHT22;10974;51.034;3.744;2022-08-01T05:21:37;19.60;99.90
21625;DHT22;10974;51.034;3.744;2022-08-01T05:24:04;19.70;99.90
21625;DHT22;10974;51.034;3.744;2022-08-01T05:26:33;19.70;99.90
21625;DHT22;10974;51.034;3.744;2022-08-01T05:28:59;19.60;99.90
21625;DHT22;10974;51.034;3.744;2022-08-01T05:31:25;19.60;99.90
21625;DHT22;10974;51.034;3.744;2022-08-01T05:33:51;19.70;99.90
21625;DHT22;10974;51.034;3.744;2022-08-01T05:36:16;19.70;99.90
21625;DHT22;10974;51.034;3.744;2022-08-01T05:38:42;19.70;99.90
21625;DHT22;10974;51.034;3.744;2022-08-01T05:41:07;19.70;99.90
21625;DHT22;10974;51.034;3.744;2022-08-01T05:43:33;19.70;99.90
21625;DHT22;10974;51.034;3.744;2022-08-01T05:45:59;19.70;99.90
21625;DHT22;10974;51.034;3.744;2022-08-01T05:48:25;19.80;99.90
21625;DHT22;10974;51.034;3.744;2022-08-01T05:50:50;19.80;99.90
21625;DHT22;10974;51.034;3.744;2022-08-01T05:53:16;19.80;99.90
21625;DHT22;10974;51.034;3.744;2022-08-01T05:55:42;19.70;99.90
21625;DHT22;10974;51.034;3.744;2022-08-01T05:58:08;19.60;99.90
21625;DHT22;10974;51.034;3.744;2022-08-01T06:00:34;19.70;99.90
21625;DHT22;10974;51.034;3.744;2022-08-01T06:02:59;19.80;99.90
21625;DHT22;10974;51.034;3.744;2022-08-01T06:05:25;19.80;99.90
21625;DHT22;10974;51.034;3.744;2022-08-01T06:07:51;19.80;99.90
21625;DHT22;10974;51.034;3.744;2022-08-01T06:10:16;19.80;99.90
21625;DHT22;10974;51.034;3.744;2022-08-01T06:12:42;19.90;99.90
21625;DHT22;10974;51.034;3.744;2022-08-01T06:15:08;20.00;99.90
21625;DHT22;10974;51.034;3.744;2022-08-01T06:17:34;20.00;99.90
21625;DHT22;10974;51.034;3.744;2022-08-01T06:19:59;20.10;99.90
21625;DHT22;10974;51.034;3.744;2022-08-01T06:22:25;20.00;99.90
21625;DHT22;10974;51.034;3.744;2022-08-01T06:24:51;20.00;99.90
21625;DHT22;10974;51.034;3.744;2022-08-01T06:27:17;20.20;99.90
21625;DHT22;10974;51.034;3.744;2022-08-01T06:29:42;20.10;99.90
21625;DHT22;10974;51.034;3.744;2022-08-01T06:32:09;20.10;99.90
21625;DHT22;10974;51.034;3.744;2022-08-01T06:34:35;20.10;99.90
21625;DHT22;10974;51.034;3.744;2022-08-01T06:37:01;20.20;99.90
21625;DHT22;10974;51.034;3.744;2022-08-01T06:39:27;20.20;99.90
21625;DHT22;10974;51.034;3.744;2022-08-01T06:41:52;20.20;99.90
21625;DHT22;10974;51.034;3.744;2022-08-01T06:44:18;20.30;99.90
21625;DHT22;10974;51.034;3.744;2022-08-01T06:46:44;20.40;99.90
21625;DHT22;10974;51.034;3.744;2022-08-01T06:49:09;20.50;99.90
21625;DHT22;10974;51.034;3.744;2022-08-01T06:51:35;20.40;99.90
21625;DHT22;10974;51.034;3.744;2022-08-01T06:54:01;20.50;99.90
21625;DHT22;10974;51.034;3.744;2022-08-01T06:56:26;20.60;99.90
21625;DHT22;10974;51.034;3.744;2022-08-01T06:58:52;20.50;99.90
21625;DHT22;10974;51.034;3.744;2022-08-01T07:01:18;20.60;99.90
21625;DHT22;10974;51.034;3.744;2022-08-01T07:03:44;20.50;99.90
21625;DHT22;10974;51.034;3.744;2022-08-01T07:06:09;20.50;99.90
21625;DHT22;10974;51.034;3.744;2022-08-01T07:08:36;20.50;99.90
21625;DHT22;10974;51.034;3.744;2022-08-01T07:11:02;20.60;99.90
21625;DHT22;10974;51.034;3.744;2022-08-01T07:13:29;20.70;99.90
21625;DHT22;10974;51.034;3.744;2022-08-01T07:15:56;20.70;99.90
21625;DHT22;10974;51.034;3.744;2022-08-01T07:18:22;20.60;99.90
21625;DHT22;10974;51.034;3.744;2022-08-01T07:20:49;20.80;99.90
21625;DHT22;10974;51.034;3.744;2022-08-01T07:23:15;20.90;99.90
21625;DHT22;10974;51.034;3.744;2022-08-01T07:25:41;21.00;99.90
21625;DHT22;10974;51.034;3.744;2022-08-01T07:28:07;21.10;99.90
21625;DHT22;10974;51.034;3.744;2022-08-01T07:30:33;21.10;99.90
21625;DHT22;10974;51.034;3.744;2022-08-01T07:32:59;21.10;99.90
21625;DHT22;10974;51.034;3.744;2022-08-01T07:35:24;21.10;99.90
21625;DHT22;10974;51.034;3.744;2022-08-01T07:37:50;21.10;99.90
21625;DHT22;10974;51.034;3.744;2022-08-01T07:40:17;21.10;99.90
21625;DHT22;10974;51.034;3.744;2022-08-01T07:42:43;21.00;99.90
21625;DHT22;10974;51.034;3.744;2022-08-01T07:45:10;21.20;99.90
21625;DHT22;10974;51.034;3.744;2022-08-01T07:47:36;21.40;99.90
21625;DHT22;10974;51.034;3.744;2022-08-01T07:50:04;21.70;99.90
21625;DHT22;10974;51.034;3.744;2022-08-01T07:52:29;21.80;99.90
21625;DHT22;10974;51.034;3.744;2022-08-01T07:54:56;22.00;99.90
21625;DHT22;10974;51.034;3.744;2022-08-01T07:57:22;21.80;99.90
21625;DHT22;10974;51.034;3.744;2022-08-01T07:59:49;21.80;99.90
21625;DHT22;10974;51.034;3.744;2022-08-01T08:02:14;22.00;99.90
21625;DHT22;10974;51.034;3.744;2022-08-01T08:04:41;22.10;99.90
21625;DHT22;10974;51.034;3.744;2022-08-01T08:07:06;22.40;99.90
21625;DHT22;10974;51.034;3.744;2022-08-01T08:09:32;22.40;99.90
21625;DHT22;10974;51.034;3.744;2022-08-01T08:11:59;22.30;99.90
21625;DHT22;10974;51.034;3.744;2022-08-01T08:14:24;22.50;99.90
21625;DHT22;10974;51.034;3.744;2022-08-01T08:16:50;22.90;99.90
21625;DHT22;10974;51.034;3.744;2022-08-01T08:19:16;22.80;99.90
21625;DHT22;10974;51.034;3.744;2022-08-01T08:21:42;22.60;99.90
21625;DHT22;10974;51.034;3.744;2022-08-01T08:24:08;22.50;99.90
21625;DHT22;10974;51.034;3.744;2022-08-01T08:26:58;22.40;99.90
21625;DHT22;10974;51.034;3.744;2022-08-01T08:29:24;22.30;99.90
21625;DHT22;10974;51.034;3.744;2022-08-01T08:31:52;22.50;99.90
21625;DHT22;10974;51.034;3.744;2022-08-01T08:34:18;22.50;99.90
21625;DHT22;10974;51.034;3.744;2022-08-01T08:36:44;22.50;99.90
21625;DHT22;10974;51.034;3.744;2022-08-01T08:39:10;22.50;99.90
21625;DHT22;10974;51.034;3.744;2022-08-01T08:41:36;22.20;99.90
21625;DHT22;10974;51.034;3.744;2022-08-01T08:44:06;22.30;99.90
21625;DHT22;10974;51.034;3.744;2022-08-01T08:46:34;22.30;99.90
21625;DHT22;10974;51.034;3.744;2022-08-01T08:49:03;22.40;99.90
21625;DHT22;10974;51.034;3.744;2022-08-01T08:51:34;22.30;99.90
21625;DHT22;10974;51.034;3.744;2022-08-01T08:54:00;22.60;99.90
21625;DHT22;10974;51.034;3.744;2022-08-01T08:56:28;23.00;99.90
21625;DHT22;10974;51.034;3.744;2022-08-01T08:58:59;23.10;1.00
21625;DHT22;10974;51.034;3.744;2022-08-01T09:01:25;23.50;1.00
21625;DHT22;10974;51.034;3.744;2022-08-01T09:03:51;23.50;1.00
21625;DHT22;10974;51.034;3.744;2022-08-01T09:06:17;23.60;1.00
21625;DHT22;10974;51.034;3.744;2022-08-01T09:08:42;23.10;1.00
21625;DHT22;10974;51.034;3.744;2022-08-01T09:11:09;23.00;99.90
21625;DHT22;10974;51.034;3.744;2022-08-01T09:13:35;23.40;1.00
21625;DHT22;10974;51.034;3.744;2022-08-01T09:16:01;23.40;99.90
21625;DHT22;10974;51.034;3.744;2022-08-01T09:18:37;23.40;44.70
21625;DHT22;10974;51.034;3.744;2022-08-01T09:23:36;23.30;99.90
21625;DHT22;10974;51.034;3.744;2022-08-01T09:26:15;23.30;1.00
21625;DHT22;10974;51.034;3.744;2022-08-01T09:28:42;23.10;1.00
21625;DHT22;10974;51.034;3.744;2022-08-01T09:31:16;23.50;1.00
21625;DHT22;10974;51.034;3.744;2022-08-01T09:33:52;24.00;1.00
21625;DHT22;10974;51.034;3.744;2022-08-01T09:36:20;24.90;99.90
21625;DHT22;10974;51.034;3.744;2022-08-01T09:38:46;24.60;99.90
21625;DHT22;10974;51.034;3.744;2022-08-01T09:41:12;24.30;1.00
21625;DHT22;10974;51.034;3.744;2022-08-01T09:43:37;24.30;1.00
21625;DHT22;10974;51.034;3.744;2022-08-01T09:46:10;24.10;99.90
21625;DHT22;10974;51.034;3.744;2022-08-01T09:48:37;23.90;1.00
21625;DHT22;10974;51.034;3.744;2022-08-01T09:51:05;23.60;1.00
21625;DHT22;10974;51.034;3.744;2022-08-01T09:53:48;23.80;78.50
21625;DHT22;10974;51.034;3.744;2022-08-01T09:56:14;23.80;1.00
21625;DHT22;10974;51.034;3.744;2022-08-01T09:58:59;24.00;1.00
21625;DHT22;10974;51.034;3.744;2022-08-01T10:01:25;24.10;99.90
21625;DHT22;10974;51.034;3.744;2022-08-01T10:04:05;24.10;99.90
21625;DHT22;10974;51.034;3.744;2022-08-01T10:06:31;24.10;1.00
21625;DHT22;10974;51.034;3.744;2022-08-01T10:08:57;24.10;1.00
21625;DHT22;10974;51.034;3.744;2022-08-01T10:11:23;24.10;1.00
21625;DHT22;10974;51.034;3.744;2022-08-01T10:13:49;24.10;1.00
21625;DHT22;10974;51.034;3.744;2022-08-01T10:16:15;24.10;1.00
21625;DHT22;10974;51.034;3.744;2022-08-01T10:18:41;24.10;1.00
21625;DHT22;10974;51.034;3.744;2022-08-01T10:21:08;24.20;98.20
21625;DHT22;10974;51.034;3.744;2022-08-01T10:23:36;24.20;99.90
21625;DHT22;10974;51.034;3.744;2022-08-01T10:26:04;24.20;99.90
21625;DHT22;10974;51.034;3.744;2022-08-01T10:28:31;24.20;99.90
21625;DHT22;10974;51.034;3.744;2022-08-01T10:31:00;24.30;1.00
21625;DHT22;10974;51.034;3.744;2022-08-01T10:33:28;24.30;1.00
21625;DHT22;10974;51.034;3.744;2022-08-01T10:35:55;24.30;99.90
21625;DHT22;10974;51.034;3.744;2022-08-01T10:38:21;24.30;1.00
21625;DHT22;10974;51.034;3.744;2022-08-01T10:40:46;24.30;1.00
21625;DHT22;10974;51.034;3.744;2022-08-01T10:43:13;24.30;39.40
21625;DHT22;10974;51.034;3.744;2022-08-01T10:45:41;24.30;1.10
21625;DHT22;10974;51.034;3.744;2022-08-01T10:48:31;24.40;1.00
21625;DHT22;10974;51.034;3.744;2022-08-01T10:51:03;24.30;1.00
21625;DHT22;10974;51.034;3.744;2022-08-01T10:53:29;24.40;62.00
21625;DHT22;10974;51.034;3.744;2022-08-01T10:56:00;24.50;99.90
21625;DHT22;10974;51.034;3.744;2022-08-01T10:58:35;24.50;1.00
21625;DHT22;10974;51.034;3.744;2022-08-01T11:01:18;24.60;1.00
21625;DHT22;10974;51.034;3.744;2022-08-01T11:04:11;24.60;1.00
21625;DHT22;10974;51.034;3.744;2022-08-01T11:06:41;24.70;1.00
21625;DHT22;10974;51.034;3.744;2022-08-01T11:14:29;24.90;68.30
21625;DHT22;10974;51.034;3.744;2022-08-01T11:16:55;24.90;1.00
21625;DHT22;10974;51.034;3.744;2022-08-01T11:19:21;24.90;33.00
21625;DHT22;10974;51.034;3.744;2022-08-01T11:27:27;24.90;99.90
21625;DHT22;10974;51.034;3.744;2022-08-01T11:32:46;25.00;1.00
21625;DHT22;10974;51.034;3.744;2022-08-01T11:35:12;25.00;1.00
21625;DHT22;10974;51.034;3.744;2022-08-01T11:37:38;25.00;1.00
21625;DHT22;10974;51.034;3.744;2022-08-01T11:40:26;25.10;99.90
21625;DHT22;10974;51.034;3.744;2022-08-01T11:45:53;25.10;99.90
21625;DHT22;10974;51.034;3.744;2022-08-01T11:48:24;25.10;99.90
21625;DHT22;10974;51.034;3.744;2022-08-01T11:50:50;25.10;99.90
21625;DHT22;10974;51.034;3.744;2022-08-01T11:53:17;25.10;99.90
21625;DHT22;10974;51.034;3.744;2022-08-01T11:55:54;25.10;1.00
21625;DHT22;10974;51.034;3.744;2022-08-01T11:58:22;25.20;99.90
21625;DHT22;10974;51.034;3.744;2022-08-01T12:00:56;25.30;99.90
21625;DHT22;10974;51.034;3.744;2022-08-01T12:03:26;25.30;1.00
21625;DHT22;10974;51.034;3.744;2022-08-01T12:05:53;25.30;99.90
21625;DHT22;10974;51.034;3.744;2022-08-01T12:10:51;25.50;99.90
21625;DHT22;10974;51.034;3.744;2022-08-01T12:13:17;25.50;1.00
21625;DHT22;10974;51.034;3.744;2022-08-01T12:15:44;25.50;1.00
21625;DHT22;10974;51.034;3.744;2022-08-01T12:18:10;25.50;99.90
21625;DHT22;10974;51.034;3.744;2022-08-01T12:20:39;25.50;1.00
21625;DHT22;10974;51.034;3.744;2022-08-01T12:23:11;25.50;1.00
21625;DHT22;10974;51.034;3.744;2022-08-01T12:25:37;25.50;1.00
21625;DHT22;10974;51.034;3.744;2022-08-01T12:28:08;25.50;1.00
21625;DHT22;10974;51.034;3.744;2022-08-01T12:30:36;25.50;99.90
21625;DHT22;10974;51.034;3.744;2022-08-01T12:33:07;25.50;99.90
21625;DHT22;10974;51.034;3.744;2022-08-01T12:35:34;25.50;99.90
21625;DHT22;10974;51.034;3.744;2022-08-01T12:38:03;25.60;99.90
21625;DHT22;10974;51.034;3.744;2022-08-01T12:40:34;25.60;99.90
21625;DHT22;10974;51.034;3.744;2022-08-01T12:43:02;25.60;81.80
21625;DHT22;10974;51.034;3.744;2022-08-01T12:45:32;25.60;34.60
21625;DHT22;10974;51.034;3.744;2022-08-01T12:47:58;25.60;99.90
21625;DHT22;10974;51.034;3.744;2022-08-01T12:50:27;25.60;1.00
21625;DHT22;10974;51.034;3.744;2022-08-01T12:52:55;25.60;99.90
21625;DHT22;10974;51.034;3.744;2022-08-01T12:55:23;25.60;99.90
21625;DHT22;10974;51.034;3.744;2022-08-01T12:58:06;25.70;99.90
21625;DHT22;10974;51.034;3.744;2022-08-01T13:00:34;25.80;1.00
21625;DHT22;10974;51.034;3.744;2022-08-01T13:03:08;25.80;99.90
21625;DHT22;10974;51.034;3.744;2022-08-01T13:06:00;25.80;1.00
21625;DHT22;10974;51.034;3.744;2022-08-01T13:08:32;25.80;99.90
21625;DHT22;10974;51.034;3.744;2022-08-01T13:11:07;25.80;1.00
21625;DHT22;10974;51.034;3.744;2022-08-01T13:13:43;25.80;1.00
21625;DHT22;10974;51.034;3.744;2022-08-01T13:16:10;25.80;99.90
21625;DHT22;10974;51.034;3.744;2022-08-01T13:18:36;25.90;91.40
21625;DHT22;10974;51.034;3.744;2022-08-01T13:23:37;25.90;1.00
21625;DHT22;10974;51.034;3.744;2022-08-01T13:26:04;25.90;1.00
21625;DHT22;10974;51.034;3.744;2022-08-01T13:28:29;25.90;1.00
21625;DHT22;10974;51.034;3.744;2022-08-01T13:31:02;25.90;1.00
21625;DHT22;10974;51.034;3.744;2022-08-01T13:33:46;26.00;99.90
21625;DHT22;10974;51.034;3.744;2022-08-01T13:36:13;25.90;1.00
21625;DHT22;10974;51.034;3.744;2022-08-01T13:38:40;25.90;1.00
21625;DHT22;10974;51.034;3.744;2022-08-01T13:41:24;26.00;1.00
21625;DHT22;10974;51.034;3.744;2022-08-01T13:43:50;25.90;99.90
21625;DHT22;10974;51.034;3.744;2022-08-01T13:46:16;25.80;1.00
21625;DHT22;10974;51.034;3.744;2022-08-01T13:48:42;25.90;99.90
21625;DHT22;10974;51.034;3.744;2022-08-01T13:51:07;25.90;99.90
21625;DHT22;10974;51.034;3.744;2022-08-01T13:53:33;25.90;1.00
21625;DHT22;10974;51.034;3.744;2022-08-01T13:55:59;25.90;1.00
21625;DHT22;10974;51.034;3.744;2022-08-01T13:58:25;25.90;53.50
21625;DHT22;10974;51.034;3.744;2022-08-01T14:00:50;25.90;1.00
21625;DHT22;10974;51.034;3.744;2022-08-01T14:03:16;25.90;1.00
21625;DHT22;10974;51.034;3.744;2022-08-01T14:05:43;25.90;99.90
21625;DHT22;10974;51.034;3.744;2022-08-01T14:08:09;25.90;99.90
21625;DHT22;10974;51.034;3.744;2022-08-01T14:10:35;25.80;1.00
21625;DHT22;10974;51.034;3.744;2022-08-01T14:13:01;25.70;1.00
21625;DHT22;10974;51.034;3.744;2022-08-01T14:15:26;25.70;1.00
21625;DHT22;10974;51.034;3.744;2022-08-01T14:17:52;25.80;1.00
21625;DHT22;10974;51.034;3.744;2022-08-01T14:20:18;25.90;99.90
21625;DHT22;10974;51.034;3.744;2022-08-01T14:22:46;26.00;99.90
21625;DHT22;10974;51.034;3.744;2022-08-01T14:25:11;26.00;99.90
21625;DHT22;10974;51.034;3.744;2022-08-01T14:27:37;25.90;1.00
21625;DHT22;10974;51.034;3.744;2022-08-01T14:30:06;25.90;99.90
21625;DHT22;10974;51.034;3.744;2022-08-01T14:32:32;25.90;1.00
21625;DHT22;10974;51.034;3.744;2022-08-01T14:34:58;25.90;1.00
21625;DHT22;10974;51.034;3.744;2022-08-01T14:37:24;25.90;1.00
21625;DHT22;10974;51.034;3.744;2022-08-01T14:39:50;25.90;29.80
21625;DHT22;10974;51.034;3.744;2022-08-01T14:42:16;25.90;99.90
21625;DHT22;10974;51.034;3.744;2022-08-01T14:44:42;25.80;1.00
21625;DHT22;10974;51.034;3.744;2022-08-01T14:47:07;25.90;1.00
21625;DHT22;10974;51.034;3.744;2022-08-01T14:49:33;25.90;99.90
21625;DHT22;10974;51.034;3.744;2022-08-01T14:51:59;25.80;99.90
21625;DHT22;10974;51.034;3.744;2022-08-01T14:54:24;25.90;1.00
21625;DHT22;10974;51.034;3.744;2022-08-01T14:56:50;25.90;1.00
21625;DHT22;10974;51.034;3.744;2022-08-01T14:59:18;25.90;99.90
21625;DHT22;10974;51.034;3.744;2022-08-01T15:01:44;25.80;1.00
21625;DHT22;10974;51.034;3.744;2022-08-01T15:04:09;25.90;1.00
21625;DHT22;10974;51.034;3.744;2022-08-01T15:06:35;25.90;99.90
21625;DHT22;10974;51.034;3.744;2022-08-01T15:09:01;25.90;99.90
21625;DHT22;10974;51.034;3.744;2022-08-01T15:11:26;25.90;1.00
21625;DHT22;10974;51.034;3.744;2022-08-01T15:13:52;25.90;99.90
21625;DHT22;10974;51.034;3.744;2022-08-01T15:16:37;25.90;99.90
21625;DHT22;10974;51.034;3.744;2022-08-01T15:19:03;25.90;99.90
21625;DHT22;10974;51.034;3.744;2022-08-01T15:21:29;25.90;99.90
21625;DHT22;10974;51.034;3.744;2022-08-01T15:23:55;25.90;99.90
21625;DHT22;10974;51.034;3.744;2022-08-01T15:26:20;25.90;1.00
21625;DHT22;10974;51.034;3.744;2022-08-01T15:28:46;25.90;99.90
21625;DHT22;10974;51.034;3.744;2022-08-01T15:31:12;25.90;1.00
21625;DHT22;10974;51.034;3.744;2022-08-01T15:33:38;26.00;1.00
21625;DHT22;10974;51.034;3.744;2022-08-01T15:36:04;26.00;99.90
21625;DHT22;10974;51.034;3.744;2022-08-01T15:38:29;26.00;99.90
21625;DHT22;10974;51.034;3.744;2022-08-01T15:40:55;26.00;99.90
21625;DHT22;10974;51.034;3.744;2022-08-01T15:43:21;26.00;99.90
21625;DHT22;10974;51.034;3.744;2022-08-01T15:45:47;26.00;99.90
21625;DHT22;10974;51.034;3.744;2022-08-01T15:48:18;26.00;99.90
21625;DHT22;10974;51.034;3.744;2022-08-01T15:50:44;26.00;99.90
21625;DHT22;10974;51.034;3.744;2022-08-01T15:53:10;26.00;99.90
21625;DHT22;10974;51.034;3.744;2022-08-01T15:55:36;26.00;99.90
21625;DHT22;10974;51.034;3.744;2022-08-01T15:58:04;25.90;99.90
21625;DHT22;10974;51.034;3.744;2022-08-01T16:00:30;26.10;99.90
21625;DHT22;10974;51.034;3.744;2022-08-01T16:02:56;26.30;99.90
21625;DHT22;10974;51.034;3.744;2022-08-01T16:05:22;26.20;99.90
21625;DHT22;10974;51.034;3.744;2022-08-01T16:07:48;26.20;99.90
21625;DHT22;10974;51.034;3.744;2022-08-01T16:10:14;26.10;99.90
21625;DHT22;10974;51.034;3.744;2022-08-01T16:12:39;26.00;99.90
21625;DHT22;10974;51.034;3.744;2022-08-01T16:15:05;25.80;99.90